Norrie, Colorado
Current Conditions -  °F | °C
As of 1:53 AM on Friday 24 Oct 2014 (Local Time) from KLXV Reporting Station
Clear Clear  
Wind Chill: 32°   Ceiling: Unl
Heat Index: 32°   Visibility: 10mi
Dew Point: 21°   Wind: 3mph
Humidity: 64%   Direction: 190°S
Pressure: 30.45"   Gusts: NA
Location:  39.3236°N, 106.55°W
Report Text: KLXV 240753Z AUTO 19003KT 10SM CLR 00/M06 A3045 RMK AO2 SLP199 T00001061
Loading
Personal Weather Stations






























Interactive Weather Map
Tropical Storm Tracking
New forecast layout! Learn more

10-Day Weather Forecast

Advertisements
Track Severe Weather on mobile